sensor_id;sensor_type;location;lat;lon;timestamp;pressure;altitude;pressure_sealevel;temperature;humidity
50550;BME280;36505;52.512;13.460;2024-03-23T00:53:39;100307.72;;;9.37;88.65
50550;BME280;36505;52.512;13.460;2024-03-23T00:56:04;100300.59;;;9.36;88.64
50550;BME280;36505;52.512;13.460;2024-03-23T00:58:30;100284.69;;;9.33;88.88
50550;BME280;36505;52.512;13.460;2024-03-23T01:00:55;100286.34;;;9.34;88.88
50550;BME280;36505;52.512;13.460;2024-03-23T01:03:21;100285.53;;;9.34;88.89
50550;BME280;36505;52.512;13.460;2024-03-23T01:05:46;100285.78;;;9.32;89.04
50550;BME280;36505;52.512;13.460;2024-03-23T01:08:12;100286.84;;;9.31;88.97
50550;BME280;36505;52.512;13.460;2024-03-23T01:10:37;100289.81;;;9.30;88.88
50550;BME280;36505;52.512;13.460;2024-03-23T01:13:02;100291.16;;;9.27;88.96
50550;BME280;36505;52.512;13.460;2024-03-23T01:15:28;100293.63;;;9.29;88.93
50550;BME280;36505;52.512;13.460;2024-03-23T01:17:53;100291.16;;;9.27;88.82
50550;BME280;36505;52.512;13.460;2024-03-23T01:20:18;100289.50;;;9.26;88.81
50550;BME280;36505;52.512;13.460;2024-03-23T01:22:44;100279.03;;;9.23;88.99
50550;BME280;36505;52.512;13.460;2024-03-23T01:25:09;100285.34;;;9.24;88.78
50550;BME280;36505;52.512;13.460;2024-03-23T01:27:34;100282.03;;;9.22;88.90
50550;BME280;36505;52.512;13.460;2024-03-23T01:30:00;100276.56;;;9.22;88.95
50550;BME280;36505;52.512;13.460;2024-03-23T01:32:25;100267.81;;;9.20;88.77
50550;BME280;36505;52.512;13.460;2024-03-23T01:34:51;100267.81;;;9.20;88.97
50550;BME280;36505;52.512;13.460;2024-03-23T01:37:16;100265.06;;;9.20;89.02
50550;BME280;36505;52.512;13.460;2024-03-23T01:39:42;100248.56;;;9.15;89.04
50550;BME280;36505;52.512;13.460;2024-03-23T01:42:07;100245.34;;;9.18;89.10
50550;BME280;36505;52.512;13.460;2024-03-23T01:44:32;100230.03;;;9.17;89.22
50550;BME280;36505;52.512;13.460;2024-03-23T01:46:58;100221.84;;;9.17;89.14
50550;BME280;36505;52.512;13.460;2024-03-23T01:49:23;100208.94;;;9.12;88.98
50550;BME280;36505;52.512;13.460;2024-03-23T01:51:49;100222.34;;;9.14;89.00
50550;BME280;36505;52.512;13.460;2024-03-23T01:54:15;100207.53;;;9.09;89.06
50550;BME280;36505;52.512;13.460;2024-03-23T01:56:41;100200.06;;;9.05;89.11
50550;BME280;36505;52.512;13.460;2024-03-23T01:59:07;100213.81;;;9.10;89.19
50550;BME280;36505;52.512;13.460;2024-03-23T02:01:34;100224.72;;;9.10;89.07
50550;BME280;36505;52.512;13.460;2024-03-23T02:04:01;100213.22;;;9.08;89.14
50550;BME280;36505;52.512;13.460;2024-03-23T02:06:26;100209.69;;;9.07;89.23
50550;BME280;36505;52.512;13.460;2024-03-23T02:08:54;100202.28;;;9.08;88.98
50550;BME280;36505;52.512;13.460;2024-03-23T02:11:19;100201.97;;;9.04;89.22
50550;BME280;36505;52.512;13.460;2024-03-23T02:13:45;100222.50;;;9.07;89.19
50550;BME280;36505;52.512;13.460;2024-03-23T02:16:10;100212.66;;;9.06;88.95
50550;BME280;36505;52.512;13.460;2024-03-23T02:18:36;100200.31;;;9.03;88.83
50550;BME280;36505;52.512;13.460;2024-03-23T02:21:02;100209.34;;;9.04;89.22
50550;BME280;36505;52.512;13.460;2024-03-23T02:23:27;100212.06;;;9.04;89.16
50550;BME280;36505;52.512;13.460;2024-03-23T02:25:53;100202.72;;;9.00;89.11
50550;BME280;36505;52.512;13.460;2024-03-23T02:28:19;100200.84;;;9.00;89.34
50550;BME280;36505;52.512;13.460;2024-03-23T02:30:44;100204.72;;;9.04;89.27
50550;BME280;36505;52.512;13.460;2024-03-23T02:33:10;100189.91;;;9.00;89.34
50550;BME280;36505;52.512;13.460;2024-03-23T02:35:35;100188.81;;;9.01;89.30
50550;BME280;36505;52.512;13.460;2024-03-23T02:38:00;100185.00;;;9.02;89.42
50550;BME280;36505;52.512;13.460;2024-03-23T02:40:27;100175.97;;;9.02;89.32
50550;BME280;36505;52.512;13.460;2024-03-23T02:42:52;100169.69;;;9.01;89.24
50550;BME280;36505;52.512;13.460;2024-03-23T02:45:18;100168.06;;;9.00;89.39
50550;BME280;36505;52.512;13.460;2024-03-23T02:47:43;100149.44;;;8.97;89.47
50550;BME280;36505;52.512;13.460;2024-03-23T02:50:09;100161.50;;;9.01;89.53
50550;BME280;36505;52.512;13.460;2024-03-23T02:52:35;100160.66;;;9.01;89.53
50550;BME280;36505;52.512;13.460;2024-03-23T02:55:02;100159.59;;;9.02;89.55
50550;BME280;36505;52.512;13.460;2024-03-23T02:57:28;100163.41;;;9.01;89.60
50550;BME280;36505;52.512;13.460;2024-03-23T02:59:53;100153.31;;;9.01;89.70
50550;BME280;36505;52.512;13.460;2024-03-23T03:02:20;100152.75;;;8.99;89.72
50550;BME280;36505;52.512;13.460;2024-03-23T03:04:46;100151.69;;;9.00;89.84
50550;BME280;36505;52.512;13.460;2024-03-23T03:07:11;100150.00;;;8.99;89.63
50550;BME280;36505;52.512;13.460;2024-03-23T03:09:36;100148.13;;;9.00;89.88
50550;BME280;36505;52.512;13.460;2024-03-23T03:12:07;100142.91;;;8.98;89.48
50550;BME280;36505;52.512;13.460;2024-03-23T03:14:36;100144.78;;;8.98;89.58
50550;BME280;36505;52.512;13.460;2024-03-23T03:17:01;100142.53;;;8.95;89.49
50550;BME280;36505;52.512;13.460;2024-03-23T03:19:27;100143.66;;;8.94;89.41
50550;BME280;36505;52.512;13.460;2024-03-23T03:21:53;100141.47;;;8.96;89.67
50550;BME280;36505;52.512;13.460;2024-03-23T03:24:18;100137.91;;;8.95;89.31
50550;BME280;36505;52.512;13.460;2024-03-23T03:26:43;100132.47;;;8.95;89.63
50550;BME280;36505;52.512;13.460;2024-03-23T03:29:09;100128.91;;;8.95;89.64
50550;BME280;36505;52.512;13.460;2024-03-23T03:31:34;100131.91;;;8.93;89.63
50550;BME280;36505;52.512;13.460;2024-03-23T03:34:00;100127.25;;;8.94;89.63
50550;BME280;36505;52.512;13.460;2024-03-23T03:36:25;100115.50;;;8.93;89.58
50550;BME280;36505;52.512;13.460;2024-03-23T03:38:50;100111.13;;;8.92;89.76
50550;BME280;36505;52.512;13.460;2024-03-23T03:41:16;100109.47;;;8.91;89.70
50550;BME280;36505;52.512;13.460;2024-03-23T03:43:41;100114.09;;;8.91;90.07
50550;BME280;36505;52.512;13.460;2024-03-23T03:46:06;100108.28;;;8.87;89.91
50550;BME280;36505;52.512;13.460;2024-03-23T03:48:36;100101.75;;;8.88;89.77
50550;BME280;36505;52.512;13.460;2024-03-23T03:51:02;100106.38;;;8.88;89.77
50550;BME280;36505;52.512;13.460;2024-03-23T03:53:27;100105.84;;;8.86;89.88
50550;BME280;36505;52.512;13.460;2024-03-23T03:55:52;100115.91;;;8.85;89.63
50550;BME280;36505;52.512;13.460;2024-03-23T03:58:18;100116.16;;;8.84;89.64
50550;BME280;36505;52.512;13.460;2024-03-23T04:00:43;100106.56;;;8.81;89.46
50550;BME280;36505;52.512;13.460;2024-03-23T04:03:09;100097.69;;;8.74;89.56
50550;BME280;36505;52.512;13.460;2024-03-23T04:05:34;100098.88;;;8.78;89.46
50550;BME280;36505;52.512;13.460;2024-03-23T04:07:59;100098.28;;;8.76;89.53
50550;BME280;36505;52.512;13.460;2024-03-23T04:10:25;100091.69;;;8.72;89.50
50550;BME280;36505;52.512;13.460;2024-03-23T04:12:51;100088.97;;;8.72;89.34
50550;BME280;36505;52.512;13.460;2024-03-23T04:15:17;100087.28;;;8.71;89.31
50550;BME280;36505;52.512;13.460;2024-03-23T04:17:42;100083.97;;;8.69;89.37
50550;BME280;36505;52.512;13.460;2024-03-23T04:20:08;100079.59;;;8.68;89.51
50550;BME280;36505;52.512;13.460;2024-03-23T04:22:39;100097.03;;;8.67;89.62
50550;BME280;36505;52.512;13.460;2024-03-23T04:25:05;100086.56;;;8.59;89.35
50550;BME280;36505;52.512;13.460;2024-03-23T04:27:36;100088.19;;;8.60;89.39
50550;BME280;36505;52.512;13.460;2024-03-23T04:30:02;100087.72;;;8.63;89.32
50550;BME280;36505;52.512;13.460;2024-03-23T04:32:29;100094.47;;;8.60;89.19
50550;BME280;36505;52.512;13.460;2024-03-23T04:34:54;100093.91;;;8.58;89.25
50550;BME280;36505;52.512;13.460;2024-03-23T04:37:20;100094.16;;;8.57;89.18
50550;BME280;36505;52.512;13.460;2024-03-23T04:39:46;100081.75;;;8.49;89.51
50550;BME280;36505;52.512;13.460;2024-03-23T04:42:15;100085.88;;;8.52;89.17
50550;BME280;36505;52.512;13.460;2024-03-23T04:44:41;100076.28;;;8.49;89.20
50550;BME280;36505;52.512;13.460;2024-03-23T04:47:06;100080.09;;;8.48;88.98
50550;BME280;36505;52.512;13.460;2024-03-23T04:49:32;100066.94;;;8.45;89.09
50550;BME280;36505;52.512;13.460;2024-03-23T04:51:57;100059.25;;;8.42;89.23
50550;BME280;36505;52.512;13.460;2024-03-23T04:54:23;100056.75;;;8.41;89.13
50550;BME280;36505;52.512;13.460;2024-03-23T04:56:48;100041.97;;;8.37;89.37
50550;BME280;36505;52.512;13.460;2024-03-23T04:59:14;100046.34;;;8.38;89.20
50550;BME280;36505;52.512;13.460;2024-03-23T05:01:39;100044.69;;;8.37;89.23
50550;BME280;36505;52.512;13.460;2024-03-23T05:04:07;100049.56;;;8.35;89.35
50550;BME280;36505;52.512;13.460;2024-03-23T05:06:32;100048.97;;;8.32;89.35
50550;BME280;36505;52.512;13.460;2024-03-23T05:08:59;100047.34;;;8.31;89.27
50550;BME280;36505;52.512;13.460;2024-03-23T05:11:25;100049.44;;;8.29;89.36
50550;BME280;36505;52.512;13.460;2024-03-23T05:13:50;100049.94;;;8.26;89.22
50550;BME280;36505;52.512;13.460;2024-03-23T05:16:16;100048.31;;;8.25;89.20
50550;BME280;36505;52.512;13.460;2024-03-23T05:18:41;100027.94;;;8.16;89.24
50550;BME280;36505;52.512;13.460;2024-03-23T05:21:07;100046.06;;;8.22;89.33
50550;BME280;36505;52.512;13.460;2024-03-23T05:23:32;100037.28;;;8.20;89.54
50550;BME280;36505;52.512;13.460;2024-03-23T05:25:57;100031.75;;;8.15;89.41
50550;BME280;36505;52.512;13.460;2024-03-23T05:28:23;100040.50;;;8.17;89.44
50550;BME280;36505;52.512;13.460;2024-03-23T05:30:55;100031.75;;;8.15;89.44
50550;BME280;36505;52.512;13.460;2024-03-23T05:33:21;100031.16;;;8.13;89.41
50550;BME280;36505;52.512;13.460;2024-03-23T05:35:47;100029.25;;;8.14;89.38
50550;BME280;36505;52.512;13.460;2024-03-23T05:38:19;100029.50;;;8.12;89.46
50550;BME280;36505;52.512;13.460;2024-03-23T05:40:56;100025.13;;;8.11;89.35
50550;BME280;36505;52.512;13.460;2024-03-23T05:43:22;100018.03;;;8.10;89.57
50550;BME280;36505;52.512;13.460;2024-03-23T05:45:57;100010.09;;;8.09;89.51
50550;BME280;36505;52.512;13.460;2024-03-23T05:48:23;100006.78;;;8.07;89.51
50550;BME280;36505;52.512;13.460;2024-03-23T05:50:49;100004.03;;;8.07;89.55
50550;BME280;36505;52.512;13.460;2024-03-23T05:53:18;100005.94;;;8.06;89.87
50550;BME280;36505;52.512;13.460;2024-03-23T05:55:47;99990.09;;;8.03;89.87
50550;BME280;36505;52.512;13.460;2024-03-23T05:58:15;99988.75;;;8.06;89.91
50550;BME280;36505;52.512;13.460;2024-03-23T06:00:40;99990.66;;;8.05;90.09
50550;BME280;36505;52.512;13.460;2024-03-23T06:03:07;99985.47;;;8.04;89.94
50550;BME280;36505;52.512;13.460;2024-03-23T06:05:33;99987.13;;;8.05;89.96
50550;BME280;36505;52.512;13.460;2024-03-23T06:07:58;99982.16;;;8.02;90.18
50550;BME280;36505;52.512;13.460;2024-03-23T06:10:23;99978.13;;;8.04;90.10
50550;BME280;36505;52.512;13.460;2024-03-23T06:12:49;99954.47;;;7.93;90.26
50550;BME280;36505;52.512;13.460;2024-03-23T06:15:17;99969.09;;;8.04;90.39
50550;BME280;36505;52.512;13.460;2024-03-23T06:17:43;99959.03;;;8.04;90.22
50550;BME280;36505;52.512;13.460;2024-03-23T06:20:09;99951.09;;;8.03;90.50
50550;BME280;36505;52.512;13.460;2024-03-23T06:22:35;99967.78;;;8.06;90.70
50550;BME280;36505;52.512;13.460;2024-03-23T06:25:00;99957.69;;;8.07;90.82
50550;BME280;36505;52.512;13.460;2024-03-23T06:27:26;99948.97;;;8.05;90.80
50550;BME280;36505;52.512;13.460;2024-03-23T06:29:51;99941.09;;;8.08;90.69
50550;BME280;36505;52.512;13.460;2024-03-23T06:32:17;99958.28;;;8.09;90.73
50550;BME280;36505;52.512;13.460;2024-03-23T06:34:42;99952.81;;;8.09;90.91
50550;BME280;36505;52.512;13.460;2024-03-23T06:37:07;99956.38;;;8.09;91.38
50550;BME280;36505;52.512;13.460;2024-03-23T06:39:35;99945.22;;;8.11;91.05
50550;BME280;36505;52.512;13.460;2024-03-23T06:42:01;99948.78;;;8.11;91.12
50550;BME280;36505;52.512;13.460;2024-03-23T06:44:26;99937.59;;;8.13;91.40
50550;BME280;36505;52.512;13.460;2024-03-23T06:46:51;99936.78;;;8.12;91.25
50550;BME280;36505;52.512;13.460;2024-03-23T06:49:17;99921.25;;;8.13;91.44
50550;BME280;36505;52.512;13.460;2024-03-23T06:51:42;99930.03;;;8.15;91.51
50550;BME280;36505;52.512;13.460;2024-03-23T06:54:07;99922.66;;;8.15;91.12
50550;BME280;36505;52.512;13.460;2024-03-23T06:56:33;99916.38;;;8.15;91.28
50550;BME280;36505;52.512;13.460;2024-03-23T06:58:59;99921.09;;;8.19;91.43
50550;BME280;36505;52.512;13.460;2024-03-23T07:01:24;99905.00;;;8.18;91.82
50550;BME280;36505;52.512;13.460;2024-03-23T07:03:50;99913.50;;;8.21;91.59
50550;BME280;36505;52.512;13.460;2024-03-23T07:06:15;99914.06;;;8.23;91.45
50550;BME280;36505;52.512;13.460;2024-03-23T07:08:41;99913.00;;;8.24;91.52
50550;BME280;36505;52.512;13.460;2024-03-23T07:11:06;99907.53;;;8.24;91.28
50550;BME280;36505;52.512;13.460;2024-03-23T07:13:31;99910.81;;;8.26;91.13
50550;BME280;36505;52.512;13.460;2024-03-23T07:15:57;99905.66;;;8.25;90.96
50550;BME280;36505;52.512;13.460;2024-03-23T07:18:23;99899.09;;;8.26;90.86
50550;BME280;36505;52.512;13.460;2024-03-23T07:20:53;99907.84;;;8.28;90.94
50550;BME280;36505;52.512;13.460;2024-03-23T07:23:19;99906.19;;;8.27;90.73
50550;BME280;36505;52.512;13.460;2024-03-23T07:25:44;99907.84;;;8.28;90.92
50550;BME280;36505;52.512;13.460;2024-03-23T07:28:10;99903.22;;;8.28;90.98
50550;BME280;36505;52.512;13.460;2024-03-23T07:30:35;99881.34;;;8.23;90.72
50550;BME280;36505;52.512;13.460;2024-03-23T07:33:00;99892.94;;;8.30;90.64
50550;BME280;36505;52.512;13.460;2024-03-23T07:35:26;99894.59;;;8.31;90.87
50550;BME280;36505;52.512;13.460;2024-03-23T07:37:51;99894.91;;;8.35;91.28
50550;BME280;36505;52.512;13.460;2024-03-23T07:40:16;99897.97;;;8.39;91.41
50550;BME280;36505;52.512;13.460;2024-03-23T07:42:42;99899.34;;;8.41;91.55
50550;BME280;36505;52.512;13.460;2024-03-23T07:45:07;99896.38;;;8.43;91.04
50550;BME280;36505;52.512;13.460;2024-03-23T07:47:34;99876.47;;;8.42;91.07
50550;BME280;36505;52.512;13.460;2024-03-23T07:50:00;99884.47;;;8.49;91.10
50550;BME280;36505;52.512;13.460;2024-03-23T07:52:28;99885.03;;;8.51;91.13
50550;BME280;36505;52.512;13.460;2024-03-23T07:54:53;99888.34;;;8.53;90.95
50550;BME280;36505;52.512;13.460;2024-03-23T07:57:19;99888.09;;;8.54;90.67
50550;BME280;36505;52.512;13.460;2024-03-23T07:59:44;99885.09;;;8.56;90.53
50550;BME280;36505;52.512;13.460;2024-03-23T08:02:10;99878.81;;;8.55;89.92
50550;BME280;36505;52.512;13.460;2024-03-23T08:04:36;99873.63;;;8.54;90.09
50550;BME280;36505;52.512;13.460;2024-03-23T08:07:01;99883.47;;;8.55;89.93
50550;BME280;36505;52.512;13.460;2024-03-23T08:09:27;99880.97;;;8.53;89.71
50550;BME280;36505;52.512;13.460;2024-03-23T08:11:52;99873.06;;;8.52;89.67
50550;BME280;36505;52.512;13.460;2024-03-23T08:14:17;99870.56;;;8.50;89.08
50550;BME280;36505;52.512;13.460;2024-03-23T08:16:43;99873.56;;;8.49;89.39
50550;BME280;36505;52.512;13.460;2024-03-23T08:19:14;99872.72;;;8.48;89.62
50550;BME280;36505;52.512;13.460;2024-03-23T08:21:39;99866.44;;;8.48;89.53
50550;BME280;36505;52.512;13.460;2024-03-23T08:24:05;99863.16;;;8.46;89.57
50550;BME280;36505;52.512;13.460;2024-03-23T08:26:30;99859.59;;;8.45;89.76
50550;BME280;36505;52.512;13.460;2024-03-23T08:28:56;99855.22;;;8.44;89.65
50550;BME280;36505;52.512;13.460;2024-03-23T08:31:22;99853.56;;;8.43;90.10
50550;BME280;36505;52.512;13.460;2024-03-23T08:33:47;99859.03;;;8.43;89.74
50550;BME280;36505;52.512;13.460;2024-03-23T08:36:13;99852.97;;;8.41;89.47
50550;BME280;36505;52.512;13.460;2024-03-23T08:38:39;99850.50;;;8.40;88.64
50550;BME280;36505;52.512;13.460;2024-03-23T08:41:07;99854.56;;;8.37;88.57
50550;BME280;36505;52.512;13.460;2024-03-23T08:43:36;99850.69;;;8.33;87.90
50550;BME280;36505;52.512;13.460;2024-03-23T08:48:39;99860.13;;;8.25;87.47
50550;BME280;36505;52.512;13.460;2024-03-23T08:51:06;99857.63;;;8.24;88.06
50550;BME280;36505;52.512;13.460;2024-03-23T08:53:33;99849.63;;;8.17;88.04
50550;BME280;36505;52.512;13.460;2024-03-23T08:55:59;99863.25;;;8.17;88.17
50550;BME280;36505;52.512;13.460;2024-03-23T08:58:27;99854.50;;;8.15;88.03
50550;BME280;36505;52.512;13.460;2024-03-23T09:00:53;99853.91;;;8.13;87.93
50550;BME280;36505;52.512;13.460;2024-03-23T09:03:22;99850.88;;;8.10;88.17
50550;BME280;36505;52.512;13.460;2024-03-23T09:05:47;99861.19;;;8.08;88.11
50550;BME280;36505;52.512;13.460;2024-03-23T09:08:13;99859.78;;;8.05;87.62
50550;BME280;36505;52.512;13.460;2024-03-23T09:10:39;99871.19;;;8.02;87.74
50550;BME280;36505;52.512;13.460;2024-03-23T09:13:04;99863.25;;;8.01;87.85
50550;BME280;36505;52.512;13.460;2024-03-23T09:15:30;99869.47;;;7.96;87.72
50550;BME280;36505;52.512;13.460;2024-03-23T09:17:56;99868.66;;;7.96;87.57
50550;BME280;36505;52.512;13.460;2024-03-23T09:20:21;99871.84;;;7.92;86.66
50550;BME280;36505;52.512;13.460;2024-03-23T09:22:48;99875.09;;;7.89;87.20
50550;BME280;36505;52.512;13.460;2024-03-23T09:25:13;99875.25;;;7.83;87.46
50550;BME280;36505;52.512;13.460;2024-03-23T09:27:39;99876.63;;;7.85;87.38
50550;BME280;36505;52.512;13.460;2024-03-23T09:30:04;99894.09;;;7.84;87.59
50550;BME280;36505;52.512;13.460;2024-03-23T09:32:30;99884.50;;;7.82;87.28
50550;BME280;36505;52.512;13.460;2024-03-23T09:34:55;99882.25;;;7.79;85.15
50550;BME280;36505;52.512;13.460;2024-03-23T09:37:21;99886.56;;;7.75;86.51
50550;BME280;36505;52.512;13.460;2024-03-23T09:39:46;99886.81;;;7.73;86.19
50550;BME280;36505;52.512;13.460;2024-03-23T09:42:11;99899.03;;;7.71;86.23
50550;BME280;36505;52.512;13.460;2024-03-23T09:44:37;99891.34;;;7.68;85.92
50550;BME280;36505;52.512;13.460;2024-03-23T09:47:02;99898.09;;;7.65;86.46
50550;BME280;36505;52.512;13.460;2024-03-23T09:49:29;99895.88;;;7.62;86.60
50550;BME280;36505;52.512;13.460;2024-03-23T09:51:55;99902.41;;;7.61;86.76
50550;BME280;36505;52.512;13.460;2024-03-23T09:54:21;99902.88;;;7.58;86.11
50550;BME280;36505;52.512;13.460;2024-03-23T09:56:47;99919.50;;;7.57;86.40
50550;BME280;36505;52.512;13.460;2024-03-23T09:59:12;99923.75;;;7.52;86.44
50550;BME280;36505;52.512;13.460;2024-03-23T10:01:37;99924.25;;;7.49;86.31
50550;BME280;36505;52.512;13.460;2024-03-23T10:04:03;99939.19;;;7.47;86.37
50550;BME280;36505;52.512;13.460;2024-03-23T10:06:28;99945.94;;;7.44;86.30
50550;BME280;36505;52.512;13.460;2024-03-23T10:08:54;99948.34;;;7.41;86.53
50550;BME280;36505;52.512;13.460;2024-03-23T10:11:20;99964.09;;;7.39;86.19
50550;BME280;36505;52.512;13.460;2024-03-23T10:13:46;99965.41;;;7.36;86.48
50550;BME280;36505;52.512;13.460;2024-03-23T10:16:12;99970.50;;;7.33;85.95
50550;BME280;36505;52.512;13.460;2024-03-23T10:18:46;99978.34;;;7.29;86.28
50550;BME280;36505;52.512;13.460;2024-03-23T10:21:11;99974.19;;;7.27;86.31
50550;BME280;36505;52.512;13.460;2024-03-23T10:23:38;99972.78;;;7.24;85.95
50550;BME280;36505;52.512;13.460;2024-03-23T10:29:00;99973.75;;;7.18;86.52
50550;BME280;36505;52.512;13.460;2024-03-23T10:31:30;99970.91;;;7.13;86.17
50550;BME280;36505;52.512;13.460;2024-03-23T10:33:56;99970.91;;;7.13;86.26
50550;BME280;36505;52.512;13.460;2024-03-23T10:36:23;99964.19;;;7.04;86.31
50550;BME280;36505;52.512;13.460;2024-03-23T10:38:51;99976.81;;;7.10;86.20
50550;BME280;36505;52.512;13.460;2024-03-23T10:41:17;99979.00;;;7.08;86.35
50550;BME280;36505;52.512;13.460;2024-03-23T10:43:46;99980.03;;;7.07;86.34
50550;BME280;36505;52.512;13.460;2024-03-23T10:46:12;99983.84;;;7.06;86.92
50550;BME280;36505;52.512;13.460;2024-03-23T10:48:37;99983.00;;;7.05;86.99
50550;BME280;36505;52.512;13.460;2024-03-23T10:51:03;99982.16;;;7.05;87.00
50550;BME280;36505;52.512;13.460;2024-03-23T10:53:30;99987.03;;;7.03;86.96
50550;BME280;36505;52.512;13.460;2024-03-23T10:55:59;99984.31;;;7.03;87.46
50550;BME280;36505;52.512;13.460;2024-03-23T10:58:31;99980.50;;;7.04;87.42
50550;BME280;36505;52.512;13.460;2024-03-23T11:00:58;99985.97;;;7.04;87.58
50550;BME280;36505;52.512;13.460;2024-03-23T11:03:37;99987.63;;;7.05;87.89
50550;BME280;36505;52.512;13.460;2024-03-23T11:06:04;99985.41;;;7.02;87.93
50550;BME280;36505;52.512;13.460;2024-03-23T11:08:32;99990.94;;;7.07;87.87
50550;BME280;36505;52.512;13.460;2024-03-23T11:11:21;99988.81;;;7.09;87.96
50550;BME280;36505;52.512;13.460;2024-03-23T11:13:51;99975.66;;;7.06;87.88
50550;BME280;36505;52.512;13.460;2024-03-23T11:16:24;99979.56;;;7.10;87.92
50550;BME280;36505;52.512;13.460;2024-03-23T11:18:50;99980.75;;;7.14;88.23
50550;BME280;36505;52.512;13.460;2024-03-23T11:24:19;99987.94;;;7.20;88.10
50550;BME280;36505;52.512;13.460;2024-03-23T11:26:45;99981.19;;;7.23;88.56
50550;BME280;36505;52.512;13.460;2024-03-23T11:29:19;99984.03;;;7.28;88.80
50550;BME280;36505;52.512;13.460;2024-03-23T11:31:48;99995.25;;;7.31;88.30
50550;BME280;36505;52.512;13.460;2024-03-23T11:34:18;99989.09;;;7.36;88.52
50550;BME280;36505;52.512;13.460;2024-03-23T11:36:44;99994.88;;;7.39;88.67
50550;BME280;36505;52.512;13.460;2024-03-23T11:39:16;99993.34;;;7.43;88.89
50550;BME280;36505;52.512;13.460;2024-03-23T11:41:56;100002.66;;;7.47;88.88
50550;BME280;36505;52.512;13.460;2024-03-23T11:44:24;100001.09;;;7.51;88.89
50550;BME280;36505;52.512;13.460;2024-03-23T11:46:50;99988.91;;;7.54;88.69
50550;BME280;36505;52.512;13.460;2024-03-23T11:51:47;100003.53;;;7.65;88.65
50550;BME280;36505;52.512;13.460;2024-03-23T11:54:13;100000.94;;;7.70;88.88
50550;BME280;36505;52.512;13.460;2024-03-23T11:56:38;100007.31;;;7.75;89.04
50550;BME280;36505;52.512;13.460;2024-03-23T11:59:04;100014.50;;;7.81;88.46
50550;BME280;36505;52.512;13.460;2024-03-23T12:01:29;100004.50;;;7.87;88.64
50550;BME280;36505;52.512;13.460;2024-03-23T12:03:56;100006.25;;;7.93;89.10
50550;BME280;36505;52.512;13.460;2024-03-23T12:06:21;100004.44;;;7.99;89.12
50550;BME280;36505;52.512;13.460;2024-03-23T12:08:46;100006.22;;;8.05;89.37
50550;BME280;36505;52.512;13.460;2024-03-23T12:11:17;100010.91;;;8.09;88.92
50550;BME280;36505;52.512;13.460;2024-03-23T12:13:44;100007.69;;;8.12;87.92
50550;BME280;36505;52.512;13.460;2024-03-23T12:16:14;100016.22;;;8.16;86.98
50550;BME280;36505;52.512;13.460;2024-03-23T12:18:41;100011.59;;;8.16;87.06
50550;BME280;36505;52.512;13.460;2024-03-23T12:21:07;100012.41;;;8.17;86.63
50550;BME280;36505;52.512;13.460;2024-03-23T12:23:33;99992.75;;;8.15;86.17
50550;BME280;36505;52.512;13.460;2024-03-23T12:25:59;99996.63;;;8.19;86.13
50550;BME280;36505;52.512;13.460;2024-03-23T12:28:25;99993.66;;;8.20;85.91
50550;BME280;36505;52.512;13.460;2024-03-23T12:30:53;99994.47;;;8.21;86.24
50550;BME280;36505;52.512;13.460;2024-03-23T12:33:19;99987.63;;;8.18;85.41
50550;BME280;36505;52.512;13.460;2024-03-23T12:35:45;99993.75;;;8.25;85.74
50550;BME280;36505;52.512;13.460;2024-03-23T12:38:10;99990.28;;;8.30;86.70
50550;BME280;36505;52.512;13.460;2024-03-23T12:40:36;99990.13;;;8.37;86.41
50550;BME280;36505;52.512;13.460;2024-03-23T12:43:01;99978.22;;;8.43;86.72
50550;BME280;36505;52.512;13.460;2024-03-23T12:45:27;99973.44;;;8.50;86.69
50550;BME280;36505;52.512;13.460;2024-03-23T12:47:52;99978.13;;;8.54;86.43
50550;BME280;36505;52.512;13.460;2024-03-23T12:50:19;99980.97;;;8.59;86.31
50550;BME280;36505;52.512;13.460;2024-03-23T12:52:44;99977.22;;;8.65;86.17
50550;BME280;36505;52.512;13.460;2024-03-23T12:55:10;99983.00;;;8.69;85.13
50550;BME280;36505;52.512;13.460;2024-03-23T12:57:35;99982.22;;;8.73;85.41
50550;BME280;36505;52.512;13.460;2024-03-23T13:00:01;99973.25;;;8.73;85.55
50550;BME280;36505;52.512;13.460;2024-03-23T13:02:28;99973.06;;;8.80;85.63
50550;BME280;36505;52.512;13.460;2024-03-23T13:04:53;99972.06;;;8.86;85.77
50550;BME280;36505;52.512;13.460;2024-03-23T13:07:20;99981.13;;;8.91;86.22
50550;BME280;36505;52.512;13.460;2024-03-23T13:09:47;99978.47;;;8.96;86.53
50550;BME280;36505;52.512;13.460;2024-03-23T13:12:12;99977.69;;;9.01;86.19
50550;BME280;36505;52.512;13.460;2024-03-23T13:14:41;99984.56;;;9.03;85.75
50550;BME280;36505;52.512;13.460;2024-03-23T13:17:07;99972.34;;;9.06;84.95
50550;BME280;36505;52.512;13.460;2024-03-23T13:19:33;99970.97;;;9.08;84.53
50550;BME280;36505;52.512;13.460;2024-03-23T13:22:00;99981.66;;;9.10;81.94
50550;BME280;36505;52.512;13.460;2024-03-23T13:24:26;99985.56;;;9.14;83.29
50550;BME280;36505;52.512;13.460;2024-03-23T13:26:52;99977.09;;;9.16;82.84
50550;BME280;36505;52.512;13.460;2024-03-23T13:29:21;99981.81;;;9.20;82.34
50550;BME280;36505;52.512;13.460;2024-03-23T13:31:51;99981.63;;;9.27;83.55
50550;BME280;36505;52.512;13.460;2024-03-23T13:34:17;99974.53;;;9.31;83.97
50550;BME280;36505;52.512;13.460;2024-03-23T13:36:43;99961.72;;;9.31;84.18
50550;BME280;36505;52.512;13.460;2024-03-23T13:39:08;99965.56;;;9.35;83.65
50550;BME280;36505;52.512;13.460;2024-03-23T13:41:40;99969.97;;;9.36;83.08
50550;BME280;36505;52.512;13.460;2024-03-23T13:44:06;99958.75;;;9.33;80.84
50550;BME280;36505;52.512;13.460;2024-03-23T13:46:32;99958.34;;;9.24;80.60
50550;BME280;36505;52.512;13.460;2024-03-23T13:48:57;99967.94;;;9.27;80.48
50550;BME280;36505;52.512;13.460;2024-03-23T13:51:24;99968.44;;;9.24;80.46
50550;BME280;36505;52.512;13.460;2024-03-23T13:53:56;99960.78;;;9.21;80.38